Time;durP1;ratioP1;P1;durP2;ratioP2;P2;SDS_P1;SDS_P2;PMS_P1;PMS_P2;Temp;Humidity;BMP_temperature;BMP_pressure;BME280_temperature;BME280_humidity;BME280_pressure;Samples;Min_cycle;Max_cycle;Signal;HPM_P1;HPM_P2
2022/06/18 00:17:42;;;;;;;7.53;3.63;;;28.00;50.20;;;;;;7377618;19;20348;-83
2022/06/18 00:20:59;;;;;;;;;;;;;;;;;;;;;
2022/06/18 00:34:32;;;;;;;7.68;4.00;;;27.80;50.40;;;;;;7147388;19;2004423;-83
2022/06/18 00:37:39;;;;;;;5.05;3.60;;;27.80;50.50;;;;;;7351420;19;20018;-83
2022/06/18 00:40:38;;;;;;;6.55;3.50;;;27.80;50.40;;;;;;7358508;19;20611;-83
2022/06/18 00:46:56;;;;;;;5.15;3.50;;;27.60;50.60;;;;;;7368403;19;20462;-83
2022/06/18 00:52:56;;;;;;;;;;;27.60;50.80;;;;;;7370501;19;20010;-82
2022/06/18 01:24:02;;;;;;;4.90;3.58;;;27.50;51.90;;;;;;7329133;19;20038;-83
2022/06/18 01:27:29;;;;;;;7.57;3.72;;;27.40;52.40;;;;;;7371263;19;20107;-83
2022/06/18 01:36:57;;;;;;;5.22;3.78;;;27.40;51.90;;;;;;7361499;19;20018;-82
2022/06/18 01:40:12;;;;;;;6.65;3.67;;;27.40;52.00;;;;;;7370354;19;20015;-82
2022/06/18 01:43:27;;;;;;;4.78;3.50;;;27.30;51.90;;;;;;7372990;19;20134;-82
2022/06/18 01:46:43;;;;;;;5.00;3.42;;;27.20;51.80;;;;;;7369214;19;20100;-82
2022/06/18 01:49:57;;;;;;;3.67;3.10;;;27.20;51.60;;;;;;7358719;19;20011;-83
2022/06/18 01:53:04;;;;;;;5.90;3.47;;;27.20;51.60;;;;;;7369009;19;20010;-83
2022/06/18 01:56:20;;;;;;;4.35;3.65;;;27.20;51.60;;;;;;7355707;19;20141;-83
2022/06/18 02:02:29;;;;;;;9.25;3.20;;;27.10;51.50;;;;;;7366404;19;20090;-83
2022/06/18 02:08:47;;;;;;;6.03;3.05;;;26.90;51.60;;;;;;7370216;19;20107;-83
2022/06/18 02:14:55;;;;;;;9.15;3.50;;;27.00;51.50;;;;;;7359641;19;20382;-83
2022/06/18 02:17:57;;;;;;;8.60;3.30;;;26.90;51.40;;;;;;7370579;19;20139;-83
2022/06/18 02:21:28;;;;;;;4.93;3.17;;;26.90;51.40;;;;;;7369647;19;20014;-83
2022/06/18 02:31:57;;;;;;;7.40;3.35;;;26.70;51.90;;;;;;7340545;19;20011;-83
2022/06/18 02:34:58;;;;;;;6.80;2.90;;;26.70;51.80;;;;;;7355671;19;20015;-83
2022/06/18 03:14:18;;;;;;;5.15;3.22;;;26.60;52.90;;;;;;7313990;19;20014;-82
2022/06/18 03:47:48;;;;;;;5.95;2.60;;;26.20;51.90;;;;;;7369999;19;20019;-82
2022/06/18 03:50:35;;;;;;;4.72;3.03;;;26.20;51.70;;;;;;7392394;19;20031;-82
2022/06/18 03:53:53;;;;;;;6.55;3.25;;;26.30;52.10;;;;;;7367390;19;20046;-82
2022/06/18 05:54:44;;;;;;;9.13;3.92;;;26.80;54.10;;;;;;7316492;19;20010;-82
2022/06/18 06:01:19;;;;;;;4.70;3.45;;;26.90;54.10;;;;;;7365894;19;20021;-81
2022/06/18 06:04:03;;;;;;;7.88;3.80;;;26.90;53.70;;;;;;7365552;19;20089;-81
2022/06/18 06:06:51;;;;;;;5.72;3.40;;;27.00;53.50;;;;;;7358456;19;20006;-81
2022/06/18 06:12:12;;;;;;;8.05;3.75;;;27.10;52.90;;;;;;7366916;19;20015;-81
2022/06/18 06:14:56;;;;;;;6.22;3.10;;;27.10;52.70;;;;;;7388915;19;20075;-81
2022/06/18 06:17:41;;;;;;;5.72;3.33;;;27.20;52.70;;;;;;7359081;19;20011;-81
2022/06/18 06:20:30;;;;;;;7.22;3.10;;;27.20;52.90;;;;;;7362987;19;20010;-82
2022/06/18 06:23:08;;;;;;;7.25;2.88;;;27.30;53.30;;;;;;7365029;19;20048;-81
2022/06/18 06:25:45;;;;;;;6.28;3.47;;;27.40;53.50;;;;;;7364879;19;20022;-81
2022/06/18 06:28:26;;;;;;;8.40;2.75;;;27.40;53.50;;;;;;7364654;19;20031;-81
2022/06/18 06:31:03;;;;;;;;;;;27.50;53.50;;;;;;7354151;19;20306;-81
2022/06/18 06:33:49;;;;;;;4.85;3.15;;;27.70;53.50;;;;;;7370312;19;19914;-82
2022/06/18 06:36:23;;;;;;;8.98;2.78;;;27.70;53.50;;;;;;7351528;19;20020;-82
2022/06/18 06:39:04;;;;;;;8.20;2.95;;;27.80;53.70;;;;;;7387133;19;20097;-82
2022/06/18 06:41:48;;;;;;;6.55;3.15;;;27.80;53.70;;;;;;7365339;19;20019;-81
2022/06/18 06:44:22;;;;;;;5.20;3.08;;;27.80;53.50;;;;;;7358243;19;20543;-81
2022/06/18 06:47:05;;;;;;;7.38;3.25;;;27.90;53.20;;;;;;7355748;19;20014;-82
2022/06/18 06:50:09;;;;;;;6.43;3.70;;;28.00;52.70;;;;;;7365818;19;20015;-82
2022/06/18 06:52:52;;;;;;;6.20;3.55;;;28.00;52.70;;;;;;7366556;19;21270;-82
2022/06/18 06:58:25;;;;;;;7.32;3.38;;;28.10;52.90;;;;;;7365378;19;20796;-82
2022/06/18 07:01:03;;;;;;;4.75;3.35;;;28.20;53.20;;;;;;7364557;19;20078;-81
2022/06/18 07:03:44;;;;;;;5.70;3.33;;;28.30;53.10;;;;;;7364031;19;20025;-81
2022/06/18 07:06:22;;;;;;;6.10;3.23;;;28.30;53.00;;;;;;7343760;19;20014;-82
2022/06/18 07:09:02;;;;;;;5.03;3.20;;;28.40;52.50;;;;;;7389255;19;20014;-80
2022/06/18 07:11:48;;;;;;;5.93;3.38;;;28.40;52.00;;;;;;7376301;19;20136;-81
2022/06/18 07:14:33;;;;;;;5.28;3.00;;;28.50;51.70;;;;;;7379964;19;20026;-81
2022/06/18 07:17:15;;;;;;;5.78;3.35;;;28.60;51.30;;;;;;7337071;19;20070;-81
2022/06/18 07:20:00;;;;;;;3.50;3.20;;;28.60;49.80;;;;;;7377237;19;20066;-82
2022/06/18 07:22:45;;;;;;;7.85;3.28;;;28.60;49.10;;;;;;7375772;19;20028;-81
2022/06/18 07:25:23;;;;;;;8.35;3.58;;;28.60;49.10;;;;;;7374150;19;20018;-81
2022/06/18 07:28:02;;;;;;;6.00;3.15;;;28.70;49.30;;;;;;7371095;19;20093;-82
2022/06/18 07:30:48;;;;;;;10.43;3.40;;;28.70;49.30;;;;;;7371848;19;20019;-82
2022/06/18 09:41:53;;;;;;;4.22;3.05;;;30.60;44.20;;;;;;7372828;19;20349;-82
2022/06/18 10:36:19;;;;;;;4.22;2.63;;;31.80;38.70;;;;;;7398798;19;20460;-81
2022/06/18 10:58:55;;;;;;;8.45;2.83;;;32.30;36.10;;;;;;7369282;19;20078;-75
2022/06/18 11:02:28;;;;;;;6.38;2.40;;;32.40;35.70;;;;;;7365151;19;20085;-75
2022/06/18 11:29:17;;;;;;;10.32;3.83;;;32.80;36.20;;;;;;7401406;19;20022;-81
2022/06/18 11:31:51;;;;;;;11.95;3.80;;;32.90;35.70;;;;;;7427815;19;20357;-80
2022/06/18 11:34:25;;;;;;;11.57;4.25;;;33.00;36.00;;;;;;7402416;19;20018;-78
2022/06/18 11:36:56;;;;;;;15.60;3.28;;;33.00;36.60;;;;;;7402129;19;20390;-78
2022/06/18 11:39:32;;;;;;;15.82;3.45;;;33.10;35.60;;;;;;7402062;19;20047;-78
2022/06/18 11:42:08;;;;;;;19.40;3.53;;;33.20;35.00;;;;;;7402225;19;20014;-78
2022/06/18 11:44:45;;;;;;;25.40;4.57;;;33.20;34.00;;;;;;7404282;19;20015;-81
2022/06/18 11:47:20;;;;;;;13.93;4.60;;;33.30;34.10;;;;;;7400998;19;20047;-78
2022/06/18 11:49:58;;;;;;;19.08;4.18;;;33.30;34.40;;;;;;7423563;19;20025;-78
2022/06/18 11:52:34;;;;;;;11.82;3.75;;;33.40;35.50;;;;;;7403187;19;20147;-77
2022/06/18 11:55:23;;;;;;;9.02;3.70;;;33.40;35.90;;;;;;7404376;19;20037;-78
2022/06/18 11:57:59;;;;;;;13.85;4.03;;;33.50;35.60;;;;;;7402553;19;20043;-78
2022/06/18 12:00:34;;;;;;;14.50;3.60;;;33.60;35.10;;;;;;7404046;19;20006;-78
2022/06/18 12:23:27;;;;;;;17.27;4.00;;;34.10;34.70;;;;;;7360778;19;20014;-85
2022/06/18 12:33:36;;;;;;;12.38;3.85;;;34.40;35.20;;;;;;7327402;19;20009;-86
2022/06/18 12:36:11;;;;;;;17.05;3.85;;;34.50;35.20;;;;;;7400072;19;20132;-83
2022/06/18 12:38:53;;;;;;;16.50;4.00;;;34.50;35.30;;;;;;7382936;19;20019;-81
2022/06/18 12:41:38;;;;;;;16.15;3.67;;;34.50;35.60;;;;;;7372872;19;20070;-81
2022/06/18 12:44:15;;;;;;;11.23;3.80;;;34.60;35.60;;;;;;7393182;19;20050;-82
2022/06/18 12:46:48;;;;;;;11.13;3.00;;;34.70;35.60;;;;;;7369096;19;20307;-78
2022/06/18 12:49:27;;;;;;;18.48;4.00;;;34.70;35.70;;;;;;7371404;19;20026;-78
2022/06/18 12:52:02;;;;;;;13.15;3.45;;;34.80;35.70;;;;;;7373112;19;20015;-79
2022/06/18 12:54:45;;;;;;;12.93;3.97;;;34.80;35.90;;;;;;7373719;19;20385;-79
2022/06/18 12:57:23;;;;;;;15.80;3.72;;;34.90;35.80;;;;;;7372217;19;20014;-78
2022/06/18 13:00:03;;;;;;;14.00;3.70;;;35.00;35.60;;;;;;7370154;19;20022;-82
2022/06/18 13:02:49;;;;;;;16.58;3.88;;;35.00;35.30;;;;;;7371536;19;20018;-81
2022/06/18 13:05:33;;;;;;;13.88;4.00;;;35.00;35.20;;;;;;7372737;19;20022;-84
2022/06/18 13:08:11;;;;;;;13.20;3.38;;;35.10;35.60;;;;;;7397394;19;20026;-82
2022/06/18 13:10:46;;;;;;;19.23;3.97;;;35.10;35.60;;;;;;7373568;19;20010;-83
2022/06/18 13:13:29;;;;;;;10.20;3.50;;;35.20;35.80;;;;;;7374179;19;20345;-83
2022/06/18 13:16:01;;;;;;;10.35;3.85;;;35.20;36.40;;;;;;7373806;19;20025;-82
2022/06/18 13:18:35;;;;;;;11.43;3.50;;;35.30;36.20;;;;;;7374301;19;20085;-83
2022/06/18 13:21:09;;;;;;;11.60;3.90;;;35.40;36.10;;;;;;7378519;19;20067;-82
2022/06/18 13:29:15;;;;;;;17.40;3.42;;;35.60;35.40;;;;;;7396002;19;20021;-82
2022/06/18 13:31:52;;;;;;;12.55;3.00;;;35.60;35.30;;;;;;7373962;19;20110;-82
2022/06/18 13:34:34;;;;;;;8.48;3.10;;;35.70;35.00;;;;;;7374116;19;20062;-82
2022/06/18 13:37:12;;;;;;;15.77;3.58;;;35.70;35.20;;;;;;7373883;19;20074;-82
2022/06/18 13:39:51;;;;;;;16.23;3.40;;;35.80;35.20;;;;;;7374091;19;20106;-81
2022/06/18 13:42:29;;;;;;;17.02;3.08;;;35.80;35.10;;;;;;7371397;19;20010;-81
2022/06/18 13:45:35;;;;;;;9.52;2.97;;;35.90;35.00;;;;;;7374613;19;20031;-81
2022/06/18 13:48:16;;;;;;;12.75;3.80;;;36.00;34.60;;;;;;7370113;19;20101;-82
2022/06/18 13:50:48;;;;;;;13.95;3.42;;;36.10;34.30;;;;;;7372890;19;20070;-82
2022/06/18 13:53:35;;;;;;;12.85;3.72;;;36.10;34.30;;;;;;7374198;19;20030;-81
2022/06/18 13:56:06;;;;;;;16.77;3.45;;;36.20;34.10;;;;;;7395224;19;20031;-81
2022/06/18 13:58:37;;;;;;;9.88;3.95;;;36.20;34.30;;;;;;7371787;19;20204;-81
2022/06/18 14:01:09;;;;;;;17.83;3.75;;;36.30;33.70;;;;;;7372266;19;20094;-82
2022/06/18 14:03:45;;;;;;;9.27;3.35;;;36.30;33.60;;;;;;7372666;19;20332;-81
2022/06/18 14:06:16;;;;;;;22.52;3.40;;;36.40;33.70;;;;;;7379341;19;20334;-82
2022/06/18 14:08:55;;;;;;;15.00;3.35;;;36.50;33.30;;;;;;7379329;19;20063;-82
2022/06/18 14:11:33;;;;;;;12.13;3.45;;;36.50;33.30;;;;;;7379772;19;20346;-81
2022/06/18 14:14:04;;;;;;;13.75;3.15;;;36.60;33.40;;;;;;7402781;19;20026;-82
2022/06/18 14:16:37;;;;;;;13.95;3.50;;;36.70;33.40;;;;;;7381832;19;20018;-82
2022/06/18 14:19:16;;;;;;;12.15;2.72;;;36.70;33.60;;;;;;7381296;19;20481;-82
2022/06/18 14:21:45;;;;;;;14.88;3.40;;;36.80;33.50;;;;;;7382363;19;20010;-82
2022/06/18 14:24:16;;;;;;;14.68;3.58;;;36.80;32.20;;;;;;7385217;19;20019;-82
2022/06/18 14:26:49;;;;;;;15.10;3.38;;;36.80;31.90;;;;;;7395672;19;20009;-82
2022/06/18 14:29:19;;;;;;;10.75;2.95;;;36.90;32.20;;;;;;7400943;19;20011;-81
2022/06/18 14:31:59;;;;;;;15.00;3.10;;;36.90;32.80;;;;;;7414923;19;20007;-77
2022/06/18 14:34:41;;;;;;;11.38;2.97;;;37.00;32.60;;;;;;7393857;19;20197;-84
2022/06/18 14:37:12;;;;;;;13.52;3.50;;;37.10;32.10;;;;;;7403217;19;20024;-83
2022/06/18 14:39:49;;;;;;;15.02;3.45;;;37.10;32.00;;;;;;7399832;19;20006;-84
2022/06/18 14:42:35;;;;;;;13.15;3.30;;;37.20;32.10;;;;;;7376392;19;20010;-84
2022/06/18 14:45:32;;;;;;;16.00;3.83;;;37.30;31.70;;;;;;7374775;19;20086;-84
2022/06/18 14:48:21;;;;;;;13.27;3.13;;;37.30;31.00;;;;;;7376231;19;20090;-85
2022/06/18 14:51:07;;;;;;;17.13;3.25;;;37.40;31.10;;;;;;7372266;19;20434;-85
2022/06/18 14:54:05;;;;;;;16.20;3.17;;;37.50;30.30;;;;;;7373848;19;20037;-85
2022/06/18 14:56:57;;;;;;;18.63;3.35;;;37.60;31.00;;;;;;7374605;19;20564;-84
2022/06/18 14:59:59;;;;;;;16.52;3.60;;;37.60;30.90;;;;;;7375536;19;20007;-85
2022/06/18 15:02:33;;;;;;;15.98;3.22;;;37.70;31.00;;;;;;7374474;19;20093;-85
2022/06/18 15:05:02;;;;;;;18.80;3.63;;;37.80;30.90;;;;;;7396739;19;20060;-85
2022/06/18 15:07:32;;;;;;;14.43;3.33;;;37.90;30.20;;;;;;7376042;19;20547;-85
2022/06/18 15:10:08;;;;;;;11.45;3.40;;;38.00;30.40;;;;;;7378514;19;20022;-85
2022/06/18 15:12:40;;;;;;;30.85;3.60;;;38.00;30.00;;;;;;7378265;19;20010;-85
2022/06/18 15:15:12;;;;;;;20.83;3.78;;;38.10;29.80;;;;;;7375531;19;20097;-85
2022/06/18 15:17:53;;;;;;;8.13;2.38;;;38.20;29.60;;;;;;7377328;19;20043;-85
2022/06/18 15:20:36;;;;;;;;;;;38.30;29.50;;;;;;7378396;19;20023;-84
2022/06/18 15:23:08;;;;;;;13.55;3.17;;;38.40;29.60;;;;;;7401713;19;19923;-86
2022/06/18 15:25:42;;;;;;;14.75;3.38;;;38.50;29.20;;;;;;7380137;19;20014;-86
2022/06/18 15:28:21;;;;;;;17.25;2.95;;;38.60;29.10;;;;;;7383356;19;20116;-85
2022/06/18 15:30:51;;;;;;;17.42;3.25;;;38.80;29.00;;;;;;7385014;19;20041;-85
2022/06/18 15:33:22;;;;;;;;;;;39.20;28.80;;;;;;7383923;19;20069;-86
2022/06/18 15:35:53;;;;;;;20.85;3.53;;;39.60;28.60;;;;;;7382221;19;19942;-85
2022/06/18 15:38:35;;;;;;;21.63;2.88;;;40.10;28.00;;;;;;7377372;19;20014;-84
2022/06/18 15:41:08;;;;;;;22.60;3.78;;;40.50;27.20;;;;;;7389107;19;20094;-82
2022/06/18 15:43:42;;;;;;;19.50;3.22;;;40.90;27.20;;;;;;7369947;19;20062;-82
2022/06/18 15:46:20;;;;;;;18.98;3.35;;;41.30;27.00;;;;;;7372196;19;20018;-82
2022/06/18 15:48:52;;;;;;;19.05;3.67;;;41.80;26.80;;;;;;7373181;19;20018;-82
2022/06/18 15:51:25;;;;;;;20.58;3.10;;;42.20;26.70;;;;;;7372703;19;20389;-82
2022/06/18 15:53:57;;;;;;;19.63;3.47;;;42.60;26.40;;;;;;7368584;19;20114;-82
2022/06/18 15:56:29;;;;;;;14.38;2.90;;;42.90;26.30;;;;;;7368879;19;20527;-82
2022/06/18 15:59:01;;;;;;;18.17;3.25;;;43.20;25.70;;;;;;7395782;19;20022;-82
2022/06/18 16:01:30;;;;;;;21.52;3.42;;;43.50;25.60;;;;;;7372112;19;20445;-82
2022/06/18 16:03:59;;;;;;;18.35;3.22;;;43.80;25.40;;;;;;7375525;19;20018;-80
2022/06/18 16:06:28;;;;;;;15.98;3.42;;;44.10;25.30;;;;;;7378416;19;20024;-80
2022/06/18 16:09:18;;;;;;;12.38;2.85;;;44.40;24.90;;;;;;7376801;19;20069;-80
2022/06/18 16:12:09;;;;;;;14.40;2.95;;;44.60;24.80;;;;;;7376583;19;20169;-80
2022/06/18 16:14:40;;;;;;;21.60;3.30;;;44.80;24.50;;;;;;7375902;19;20025;-81
2022/06/18 16:17:10;;;;;;;14.68;3.30;;;44.90;24.70;;;;;;7382406;19;20023;-81
2022/06/18 16:19:48;;;;;;;12.43;3.30;;;45.10;24.60;;;;;;7395387;19;20039;-81
2022/06/18 16:22:24;;;;;;;18.13;4.05;;;45.10;24.50;;;;;;7371869;19;20170;-81
2022/06/18 16:24:54;;;;;;;18.17;3.55;;;45.20;24.60;;;;;;7375843;19;20018;-81
2022/06/18 16:27:32;;;;;;;13.15;3.25;;;45.40;24.60;;;;;;7377438;19;20085;-81
2022/06/18 16:30:24;;;;;;;15.02;3.47;;;45.50;24.50;;;;;;7373007;19;20022;-82
2022/06/18 16:33:15;;;;;;;17.27;3.67;;;45.70;24.10;;;;;;7374263;19;20014;-81
2022/06/18 16:36:09;;;;;;;18.25;3.50;;;45.90;24.00;;;;;;7376585;19;20304;-81
2022/06/18 16:38:40;;;;;;;14.27;3.00;;;46.00;23.80;;;;;;7373414;19;20015;-82
2022/06/18 16:41:19;;;;;;;24.83;3.35;;;46.10;23.60;;;;;;7389427;19;20102;-81
2022/06/18 16:44:25;;;;;;;20.50;3.57;;;46.20;23.50;;;;;;7398853;19;20217;-81
2022/06/18 16:47:11;;;;;;;22.42;4.03;;;46.30;23.60;;;;;;7376187;19;20274;-81
2022/06/18 16:49:39;;;;;;;13.30;3.28;;;46.40;23.70;;;;;;7374124;19;20014;-81
2022/06/18 16:52:19;;;;;;;17.92;3.42;;;46.50;23.70;;;;;;7374694;19;20032;-81
2022/06/18 16:54:48;;;;;;;26.67;3.40;;;46.60;23.30;;;;;;7375232;19;20039;-81
2022/06/18 16:57:21;;;;;;;20.30;3.17;;;46.90;23.10;;;;;;7375283;19;20096;-81
2022/06/18 16:59:52;;;;;;;12.57;3.35;;;47.10;23.30;;;;;;7374707;19;20022;-81
2022/06/18 17:02:23;;;;;;;12.63;2.80;;;47.30;23.40;;;;;;7375352;19;20018;-82
2022/06/18 17:04:52;;;;;;;14.38;3.35;;;47.40;23.20;;;;;;7396294;19;20011;-82
2022/06/18 17:07:24;;;;;;;13.07;3.30;;;47.60;23.20;;;;;;7375185;19;20093;-81
2022/06/18 17:09:53;;;;;;;16.90;3.40;;;47.80;22.90;;;;;;7373676;19;20025;-82
2022/06/18 17:12:22;;;;;;;23.23;3.22;;;48.00;23.00;;;;;;7372909;19;20098;-82
2022/06/18 17:14:51;;;;;;;19.67;3.22;;;48.10;23.00;;;;;;7373746;19;20435;-81
2022/06/18 17:17:20;;;;;;;16.60;3.17;;;48.10;23.10;;;;;;7371554;19;20029;-82
2022/06/18 17:19:52;;;;;;;25.65;3.60;;;48.30;23.10;;;;;;7394116;19;20409;-82
2022/06/18 17:22:20;;;;;;;18.58;3.08;;;48.40;22.60;;;;;;7370107;19;20022;-82
2022/06/18 17:32:57;;;;;;;16.15;4.53;;;48.70;22.50;;;;;;7376766;19;20114;-81
2022/06/18 17:35:29;;;;;;;23.75;3.95;;;48.70;22.60;;;;;;7376575;19;20459;-81
2022/06/18 17:37:58;;;;;;;15.40;3.60;;;48.70;22.40;;;;;;7394663;19;20018;-82
2022/06/18 17:40:27;;;;;;;19.88;4.25;;;48.90;22.50;;;;;;7373181;19;20010;-82
2022/06/18 17:42:56;;;;;;;20.08;3.83;;;48.80;22.50;;;;;;7371655;19;20054;-82
2022/06/18 17:45:25;;;;;;;15.47;3.53;;;49.00;22.50;;;;;;7373235;19;20122;-81
2022/06/18 17:47:54;;;;;;;20.45;4.38;;;48.80;22.60;;;;;;7371110;19;20478;-81
2022/06/18 17:50:23;;;;;;;17.00;3.92;;;48.80;22.60;;;;;;7370576;19;20039;-81
2022/06/18 17:52:55;;;;;;;14.17;3.77;;;48.80;22.90;;;;;;7398125;19;20025;-82
2022/06/18 17:55:24;;;;;;;13.15;3.75;;;48.70;24.20;;;;;;7379291;19;20331;-82
2022/06/18 17:57:53;;;;;;;10.18;3.30;;;48.40;24.60;;;;;;7380658;19;20015;-81
2022/06/18 18:00:21;;;;;;;21.88;3.70;;;48.20;25.70;;;;;;7375149;19;20101;-81
2022/06/18 18:02:50;;;;;;;14.65;4.10;;;48.10;25.20;;;;;;7371346;19;20491;-81
2022/06/18 18:05:19;;;;;;;20.75;3.53;;;47.90;25.50;;;;;;7372139;19;20026;-81
2022/06/18 18:07:48;;;;;;;13.95;3.08;;;47.60;25.80;;;;;;7392333;19;20018;-81
2022/06/18 18:10:19;;;;;;;14.88;3.20;;;47.30;26.00;;;;;;7369854;19;20082;-81
2022/06/18 18:12:48;;;;;;;18.45;4.50;;;47.10;26.40;;;;;;7369881;19;20446;-82
2022/06/18 18:15:20;;;;;;;16.42;3.90;;;46.90;26.60;;;;;;7369207;19;20014;-82
2022/06/18 18:17:51;;;;;;;15.52;4.47;;;46.70;26.30;;;;;;7370966;19;20317;-80
2022/06/18 18:20:22;;;;;;;22.55;6.97;;;46.50;26.40;;;;;;7371508;19;20022;-80
2022/06/18 18:22:50;;;;;;;;;;;46.30;26.40;;;;;;7393276;19;20426;-81
2022/06/18 18:25:22;;;;;;;15.23;3.65;;;46.20;26.50;;;;;;7371472;19;19914;-81
2022/06/18 18:27:55;;;;;;;21.90;4.30;;;45.90;26.50;;;;;;7371919;19;20018;-81
2022/06/18 18:30:25;;;;;;;26.05;4.00;;;45.60;26.00;;;;;;7372495;19;20010;-81
2022/06/18 18:32:54;;;;;;;16.45;4.05;;;45.20;26.10;;;;;;7369655;19;20022;-81
2022/06/18 18:35:27;;;;;;;18.27;3.90;;;44.90;26.60;;;;;;7371645;19;20614;-81
2022/06/18 18:37:56;;;;;;;15.80;4.25;;;44.50;26.80;;;;;;7393296;19;20018;-80
2022/06/18 18:40:27;;;;;;;17.67;3.88;;;44.10;27.00;;;;;;7370657;19;20074;-81
2022/06/18 18:42:56;;;;;;;27.83;5.15;;;43.90;27.20;;;;;;7371086;19;20037;-81
2022/06/18 18:45:25;;;;;;;23.75;4.45;;;43.50;27.00;;;;;;7370449;19;20037;-81
2022/06/18 18:47:54;;;;;;;20.80;4.10;;;43.10;27.80;;;;;;7368444;19;20463;-80
2022/06/18 18:50:27;;;;;;;26.13;4.28;;;42.80;28.10;;;;;;7368262;19;20085;-80
2022/06/18 18:52:55;;;;;;;28.50;5.10;;;42.40;27.80;;;;;;7390811;19;20018;-81
2022/06/18 18:55:29;;;;;;;26.70;5.15;;;42.00;28.10;;;;;;7368766;19;20017;-81
2022/06/18 18:57:59;;;;;;;36.67;5.40;;;41.60;28.30;;;;;;7369459;19;20014;-81
2022/06/18 19:00:28;;;;;;;31.88;5.07;;;41.10;28.90;;;;;;7371209;19;20063;-80
2022/06/18 19:02:57;;;;;;;24.23;5.20;;;40.70;29.20;;;;;;7380647;19;20031;-82
2022/06/18 19:05:26;;;;;;;18.92;4.45;;;40.20;29.60;;;;;;7376447;19;20018;-80
2022/06/18 19:07:55;;;;;;;32.20;5.95;;;39.80;29.80;;;;;;7395434;19;20021;-81
2022/06/18 19:10:23;;;;;;;27.88;5.10;;;39.30;29.90;;;;;;7368380;19;20761;-80
2022/06/18 19:13:11;;;;;;;23.73;4.72;;;38.80;30.40;;;;;;7370224;19;20010;-80
2022/06/18 19:15:44;;;;;;;32.15;5.50;;;38.40;31.20;;;;;;7369577;19;20014;-80
2022/06/18 19:18:15;;;;;;;23.17;5.45;;;37.90;31.90;;;;;;7369227;19;20022;-81
2022/06/18 19:20:45;;;;;;;26.65;4.75;;;37.50;32.30;;;;;;7368292;19;20025;-81
2022/06/18 19:23:14;;;;;;;30.40;5.47;;;37.20;33.10;;;;;;7367037;19;20379;-81
2022/06/18 19:25:44;;;;;;;30.65;4.47;;;36.90;33.80;;;;;;7386040;19;20268;-81
2022/06/18 19:28:23;;;;;;;26.38;6.13;;;36.60;34.40;;;;;;7367436;19;20019;-81
2022/06/18 19:30:53;;;;;;;21.80;4.47;;;36.30;35.00;;;;;;7369307;19;20019;-80
2022/06/18 19:33:22;;;;;;;22.23;4.35;;;36.20;35.70;;;;;;7375888;19;20024;-81
2022/06/18 19:35:51;;;;;;;22.83;4.43;;;36.00;36.20;;;;;;7370167;19;20501;-80
2022/06/18 19:38:20;;;;;;;17.65;4.60;;;35.70;36.50;;;;;;7371578;19;20022;-80
2022/06/18 19:40:50;;;;;;;25.60;4.72;;;35.50;37.10;;;;;;7394553;19;20730;-80
2022/06/18 19:43:24;;;;;;;21.67;4.75;;;35.40;37.60;;;;;;7371792;19;20335;-79
2022/06/18 19:45:56;;;;;;;26.35;4.82;;;35.20;37.90;;;;;;7374250;19;20035;-79
2022/06/18 19:48:25;;;;;;;24.40;4.57;;;35.00;38.00;;;;;;7373195;19;20139;-80
2022/06/18 19:50:53;;;;;;;28.90;5.32;;;34.90;38.60;;;;;;7374345;19;20018;-79
2022/06/18 19:53:22;;;;;;;21.17;5.20;;;34.80;39.00;;;;;;7375247;19;20074;-80
2022/06/18 19:55:51;;;;;;;22.88;4.57;;;34.70;39.10;;;;;;7393801;19;20022;-80
2022/06/18 19:58:20;;;;;;;22.80;4.85;;;34.60;39.20;;;;;;7376796;19;20080;-79
2022/06/18 20:00:51;;;;;;;19.02;5.00;;;34.60;39.50;;;;;;7375752;19;20014;-80
2022/06/18 20:03:23;;;;;;;20.83;5.20;;;34.40;39.70;;;;;;7374319;19;20035;-80
2022/06/18 20:05:52;;;;;;;22.27;5.03;;;34.30;40.20;;;;;;7372894;19;20090;-80
2022/06/18 20:08:21;;;;;;;19.42;5.28;;;34.20;40.30;;;;;;7370074;19;20017;-78
2022/06/18 20:10:50;;;;;;;23.08;5.40;;;34.10;40.70;;;;;;7392715;19;20089;-78
2022/06/18 20:13:18;;;;;;;17.33;5.07;;;34.00;40.80;;;;;;7373441;19;20053;-78
2022/06/18 20:15:47;;;;;;;28.30;5.38;;;34.00;41.00;;;;;;7372598;19;20098;-78
2022/06/18 20:18:19;;;;;;;23.70;5.78;;;34.00;41.40;;;;;;7372581;19;20471;-78
2022/06/18 20:20:48;;;;;;;19.38;5.72;;;33.90;41.10;;;;;;7373339;19;20034;-79
2022/06/18 20:23:17;;;;;;;19.70;5.57;;;33.90;41.30;;;;;;7370717;19;20025;-77
2022/06/18 20:25:46;;;;;;;17.65;5.18;;;33.90;41.50;;;;;;7393070;19;20093;-77
2022/06/18 20:28:15;;;;;;;22.67;5.68;;;33.90;41.80;;;;;;7371436;19;20031;-79
2022/06/18 20:30:43;;;;;;;22.83;5.85;;;33.80;41.90;;;;;;7374600;19;20057;-79
2022/06/18 20:33:13;;;;;;;20.55;5.40;;;33.70;42.00;;;;;;7371698;19;20186;-79
2022/06/18 20:35:46;;;;;;;20.10;6.07;;;33.70;41.90;;;;;;7373563;19;20012;-79
2022/06/18 20:38:16;;;;;;;17.10;5.25;;;33.60;41.90;;;;;;7375788;19;20342;-79
2022/06/18 20:41:01;;;;;;;16.58;4.90;;;33.50;41.80;;;;;;7395532;19;20325;-78
2022/06/18 20:43:33;;;;;;;19.80;5.50;;;33.50;41.70;;;;;;7369765;19;20085;-80
2022/06/18 20:46:04;;;;;;;24.63;6.05;;;33.40;42.00;;;;;;7371788;19;20621;-77
2022/06/18 20:48:34;;;;;;;26.83;5.83;;;33.40;41.80;;;;;;7373488;19;20022;-79
2022/06/18 20:51:05;;;;;;;22.88;5.70;;;33.30;41.80;;;;;;7371629;19;20150;-79
2022/06/18 20:53:34;;;;;;;17.58;5.15;;;33.30;42.10;;;;;;7374104;19;20024;-79
2022/06/18 20:58:44;;;;;;;;;;;33.30;42.30;;;;;;7373180;19;20022;-79
2022/06/18 21:01:13;;;;;;;16.55;5.60;;;33.30;42.20;;;;;;7370580;19;19922;-79
2022/06/18 21:03:43;;;;;;;22.30;6.90;;;33.20;42.20;;;;;;7371454;19;20054;-78
2022/06/18 21:06:14;;;;;;;25.25;6.72;;;33.10;42.00;;;;;;7374224;19;20006;-79
2022/06/18 21:08:44;;;;;;;22.83;5.97;;;33.00;41.90;;;;;;7371886;19;20035;-78
2022/06/18 21:11:12;;;;;;;26.65;6.55;;;32.90;42.00;;;;;;7370327;19;20086;-81
2022/06/18 21:13:41;;;;;;;26.98;6.43;;;32.90;42.10;;;;;;7389989;19;20097;-76
2022/06/18 21:16:11;;;;;;;29.35;7.13;;;32.90;42.20;;;;;;7370298;19;20580;-76
2022/06/18 21:18:39;;;;;;;25.05;6.57;;;32.90;42.10;;;;;;7372326;19;20078;-76
2022/06/18 21:21:08;;;;;;;23.50;6.55;;;32.80;42.10;;;;;;7369722;19;20011;-77
2022/06/18 21:23:42;;;;;;;26.35;6.70;;;32.80;42.30;;;;;;7369076;19;20094;-76
2022/06/18 21:26:11;;;;;;;27.48;6.50;;;32.70;42.50;;;;;;7370924;19;20035;-76
2022/06/18 21:28:41;;;;;;;27.80;7.28;;;32.70;42.60;;;;;;7392579;19;20406;-76
2022/06/18 21:36:59;;;;;;;20.67;6.40;;;32.70;42.70;;;;;;7371252;19;20019;-75
2022/06/18 21:39:23;;;;;;;;;;;32.60;42.90;;;;;;7369540;19;20037;-76
2022/06/18 21:41:52;;;;;;;25.55;7.38;;;32.60;43.00;;;;;;7369943;19;19925;-76
2022/06/18 21:44:23;;;;;;;19.02;6.90;;;32.50;43.10;;;;;;7369308;19;20029;-77
2022/06/18 21:46:52;;;;;;;22.27;7.30;;;32.50;43.30;;;;;;7391093;19;20090;-76
2022/06/18 21:49:22;;;;;;;34.53;7.57;;;32.50;43.40;;;;;;7368728;19;20010;-76
2022/06/18 21:51:51;;;;;;;22.60;6.68;;;32.50;43.60;;;;;;7369264;19;20015;-76
2022/06/18 21:54:20;;;;;;;21.52;6.88;;;32.50;43.60;;;;;;7369299;19;20022;-76
2022/06/18 21:56:53;;;;;;;34.10;7.07;;;32.50;43.20;;;;;;7368778;19;20022;-76
2022/06/18 21:59:23;;;;;;;33.50;8.13;;;32.40;43.40;;;;;;7367463;19;20033;-76
2022/06/18 22:01:52;;;;;;;29.38;7.63;;;32.50;43.20;;;;;;7391441;19;20022;-76
2022/06/18 22:04:23;;;;;;;28.35;7.63;;;32.40;43.10;;;;;;7368403;19;20333;-76
2022/06/18 22:06:53;;;;;;;28.73;8.68;;;32.40;43.10;;;;;;7370257;19;20178;-76
2022/06/18 22:09:22;;;;;;;27.83;7.63;;;32.40;43.10;;;;;;7367465;19;20025;-76
2022/06/18 22:17:21;;;;;;;35.35;7.07;;;32.10;43.30;;;;;;7362958;19;20018;-75
2022/06/18 22:19:50;;;;;;;24.42;7.85;;;32.10;43.20;;;;;;7381436;19;20039;-75
2022/06/18 22:22:21;;;;;;;20.08;6.75;;;32.00;43.10;;;;;;7364085;19;20078;-76
2022/06/18 22:24:51;;;;;;;30.83;7.53;;;31.90;43.10;;;;;;7365975;19;20063;-76
2022/06/18 22:27:25;;;;;;;32.95;7.60;;;31.90;43.10;;;;;;7364580;19;20014;-76
2022/06/18 22:29:54;;;;;;;29.85;7.50;;;31.90;43.00;;;;;;7363636;19;20014;-76
2022/06/18 22:32:24;;;;;;;35.55;7.85;;;31.90;42.80;;;;;;7360411;19;20018;-76
2022/06/18 22:34:54;;;;;;;30.88;8.18;;;31.90;42.70;;;;;;7385390;19;20057;-76
2022/06/18 22:37:22;;;;;;;32.90;7.22;;;31.80;43.40;;;;;;7364746;19;20016;-76
2022/06/18 22:39:51;;;;;;;21.88;6.38;;;31.80;42.80;;;;;;7363720;19;20129;-76
2022/06/18 22:42:22;;;;;;;27.55;6.93;;;31.70;42.90;;;;;;7362137;19;20025;-75
2022/06/18 22:44:55;;;;;;;26.80;6.13;;;31.60;42.80;;;;;;7365030;19;20011;-75
2022/06/18 22:47:25;;;;;;;26.95;6.97;;;31.60;42.60;;;;;;7363917;19;20022;-76
2022/06/18 22:49:57;;;;;;;21.60;6.95;;;31.60;42.50;;;;;;7384941;19;20062;-76
2022/06/18 22:52:32;;;;;;;25.33;7.50;;;31.60;42.40;;;;;;7365631;19;20106;-76
2022/06/18 22:55:05;;;;;;;22.38;6.93;;;31.60;42.40;;;;;;7367890;19;20072;-76